sensor_id;sensor_type;location;lat;lon;timestamp;pressure;altitude;pressure_sealevel;temperature;humidity
40650;BME280;26342;42.826;23.992;2023-04-06T00:00:49;95036.66;;;0.28;100.00
40650;BME280;26342;42.826;23.992;2023-04-06T00:03:15;95023.16;;;0.24;100.00
40650;BME280;26342;42.826;23.992;2023-04-06T00:05:41;95022.34;;;0.24;100.00
40650;BME280;26342;42.826;23.992;2023-04-06T00:08:06;95012.84;;;0.23;100.00
40650;BME280;26342;42.826;23.992;2023-04-06T00:10:32;95013.66;;;0.37;100.00
40650;BME280;26342;42.826;23.992;2023-04-06T00:12:58;95020.13;;;0.34;100.00
40650;BME280;26342;42.826;23.992;2023-04-06T00:15:24;95012.25;;;0.21;100.00
40650;BME280;26342;42.826;23.992;2023-04-06T00:17:50;95008.00;;;0.26;100.00
40650;BME280;26342;42.826;23.992;2023-04-06T00:20:16;95014.28;;;0.32;100.00
40650;BME280;26342;42.826;23.992;2023-04-06T00:22:41;95007.00;;;0.27;100.00
40650;BME280;26342;42.826;23.992;2023-04-06T00:25:07;95003.97;;;0.31;100.00
40650;BME280;26342;42.826;23.992;2023-04-06T00:27:33;94992.25;;;0.20;100.00
40650;BME280;26342;42.826;23.992;2023-04-06T00:29:58;95004.56;;;0.26;100.00
40650;BME280;26342;42.826;23.992;2023-04-06T00:32:24;94977.13;;;0.09;100.00
40650;BME280;26342;42.826;23.992;2023-04-06T00:34:49;95000.34;;;0.25;100.00
40650;BME280;26342;42.826;23.992;2023-04-06T00:37:15;95004.16;;;0.29;100.00
40650;BME280;26342;42.826;23.992;2023-04-06T00:39:40;94996.72;;;0.26;100.00
40650;BME280;26342;42.826;23.992;2023-04-06T00:42:15;94997.09;;;0.23;100.00
40650;BME280;26342;42.826;23.992;2023-04-06T00:44:41;94998.09;;;0.28;100.00
40650;BME280;26342;42.826;23.992;2023-04-06T00:47:07;94998.31;;;0.27;100.00
40650;BME280;26342;42.826;23.992;2023-04-06T00:49:33;94967.03;;;0.12;100.00
40650;BME280;26342;42.826;23.992;2023-04-06T00:51:59;94977.75;;;0.24;100.00
40650;BME280;26342;42.826;23.992;2023-04-06T00:54:25;94991.84;;;0.23;100.00
40650;BME280;26342;42.826;23.992;2023-04-06T00:56:51;94992.25;;;0.26;100.00
40650;BME280;26342;42.826;23.992;2023-04-06T00:59:19;95000.34;;;0.18;100.00
40650;BME280;26342;42.826;23.992;2023-04-06T01:01:44;94992.66;;;0.17;100.00
40650;BME280;26342;42.826;23.992;2023-04-06T01:04:10;94977.13;;;0.09;100.00
40650;BME280;26342;42.826;23.992;2023-04-06T01:06:37;94986.59;;;0.10;100.00
40650;BME280;26342;42.826;23.992;2023-04-06T01:09:03;94987.22;;;0.12;100.00
40650;BME280;26342;42.826;23.992;2023-04-06T01:11:28;94984.16;;;0.15;100.00
40650;BME280;26342;42.826;23.992;2023-04-06T01:13:58;94985.59;;;0.11;100.00
40650;BME280;26342;42.826;23.992;2023-04-06T01:16:25;94985.97;;;0.08;100.00
40650;BME280;26342;42.826;23.992;2023-04-06T01:18:50;94987.41;;;0.10;100.00
40650;BME280;26342;42.826;23.992;2023-04-06T01:21:16;94983.78;;;0.05;100.00
40650;BME280;26342;42.826;23.992;2023-04-06T01:23:45;94987.63;;;0.09;100.00
40650;BME280;26342;42.826;23.992;2023-04-06T01:26:23;94974.50;;;0.02;100.00
40650;BME280;26342;42.826;23.992;2023-04-06T01:31:42;94986.91;;;-0.53;100.00
40650;BME280;26342;42.826;23.992;2023-04-06T01:34:08;94977.81;;;-0.50;100.00
40650;BME280;26342;42.826;23.992;2023-04-06T01:36:33;94982.50;;;-0.39;100.00
40650;BME280;26342;42.826;23.992;2023-04-06T01:38:59;94972.84;;;-0.39;100.00
40650;BME280;26342;42.826;23.992;2023-04-06T01:41:25;94967.53;;;-0.52;100.00
40650;BME280;26342;42.826;23.992;2023-04-06T01:43:51;94955.81;;;-0.56;100.00
40650;BME280;26342;42.826;23.992;2023-04-06T01:46:20;94967.53;;;-0.59;100.00
40650;BME280;26342;42.826;23.992;2023-04-06T01:48:45;94957.84;;;-0.58;100.00
40650;BME280;26342;42.826;23.992;2023-04-06T01:51:11;94961.50;;;-0.52;100.00
40650;BME280;26342;42.826;23.992;2023-04-06T01:54:01;94951.38;;;-0.56;100.00
40650;BME280;26342;42.826;23.992;2023-04-06T01:56:44;94944.13;;;-0.67;100.00
40650;BME280;26342;42.826;23.992;2023-04-06T01:59:09;94951.16;;;-0.67;100.00
40650;BME280;26342;42.826;23.992;2023-04-06T02:01:36;94957.66;;;-0.63;100.00
40650;BME280;26342;42.826;23.992;2023-04-06T02:04:09;94953.19;;;-0.69;100.00
40650;BME280;26342;42.826;23.992;2023-04-06T02:09:34;94953.53;;;-0.86;100.00
40650;BME280;26342;42.826;23.992;2023-04-06T02:15:38;94945.72;;;-0.79;100.00
40650;BME280;26342;42.826;23.992;2023-04-06T02:18:21;94944.69;;;-0.71;100.00
40650;BME280;26342;42.826;23.992;2023-04-06T02:21:04;94939.69;;;-0.66;100.00
40650;BME280;26342;42.826;23.992;2023-04-06T02:23:30;94945.16;;;-0.54;100.00
40650;BME280;26342;42.826;23.992;2023-04-06T02:25:56;94952.41;;;-0.50;100.00
40650;BME280;26342;42.826;23.992;2023-04-06T02:28:21;94939.72;;;-0.53;100.00
40650;BME280;26342;42.826;23.992;2023-04-06T02:30:48;94946.00;;;-0.47;100.00
40650;BME280;26342;42.826;23.992;2023-04-06T02:33:14;94948.59;;;-0.54;100.00
40650;BME280;26342;42.826;23.992;2023-04-06T02:35:40;94946.59;;;-0.45;100.00
40650;BME280;26342;42.826;23.992;2023-04-06T02:38:17;94942.75;;;-0.43;100.00
40650;BME280;26342;42.826;23.992;2023-04-06T02:43:56;94943.56;;;-0.42;100.00
40650;BME280;26342;42.826;23.992;2023-04-06T02:46:32;94940.75;;;-0.41;100.00
40650;BME280;26342;42.826;23.992;2023-04-06T02:49:02;94947.81;;;-0.35;100.00
40650;BME280;26342;42.826;23.992;2023-04-06T02:51:27;94947.03;;;-0.22;100.00
40650;BME280;26342;42.826;23.992;2023-04-06T02:53:53;94935.75;;;-0.16;100.00
40650;BME280;26342;42.826;23.992;2023-04-06T02:56:18;94932.50;;;-0.11;100.00
40650;BME280;26342;42.826;23.992;2023-04-06T02:58:48;94927.88;;;-0.22;100.00
40650;BME280;26342;42.826;23.992;2023-04-06T03:01:16;94937.16;;;-0.20;100.00
40650;BME280;26342;42.826;23.992;2023-04-06T03:03:41;94936.94;;;-0.12;100.00
40650;BME280;26342;42.826;23.992;2023-04-06T03:06:08;94940.19;;;-0.23;100.00
40650;BME280;26342;42.826;23.992;2023-04-06T03:08:34;94939.13;;;-0.42;100.00
40650;BME280;26342;42.826;23.992;2023-04-06T03:11:03;94937.72;;;-0.51;100.00
40650;BME280;26342;42.826;23.992;2023-04-06T03:13:28;94942.97;;;-0.44;100.00
40650;BME280;26342;42.826;23.992;2023-04-06T03:15:54;94938.53;;;-0.44;100.00
40650;BME280;26342;42.826;23.992;2023-04-06T03:18:24;94947.22;;;-0.37;100.00
40650;BME280;26342;42.826;23.992;2023-04-06T03:20:51;94945.41;;;-0.30;100.00
40650;BME280;26342;42.826;23.992;2023-04-06T03:23:16;94944.19;;;-0.27;100.00
40650;BME280;26342;42.826;23.992;2023-04-06T03:25:42;94945.22;;;-0.21;100.00
40650;BME280;26342;42.826;23.992;2023-04-06T03:28:11;94946.84;;;-0.14;100.00
40650;BME280;26342;42.826;23.992;2023-04-06T03:30:42;94938.16;;;-0.14;100.00
40650;BME280;26342;42.826;23.992;2023-04-06T03:33:08;94940.19;;;-0.03;100.00
40650;BME280;26342;42.826;23.992;2023-04-06T03:35:37;94935.53;;;-0.01;100.00
40650;BME280;26342;42.826;23.992;2023-04-06T03:38:04;94943.00;;;-0.05;100.00
40650;BME280;26342;42.826;23.992;2023-04-06T03:40:31;94938.78;;;-0.06;100.00
40650;BME280;26342;42.826;23.992;2023-04-06T03:43:07;94941.97;;;-0.17;100.00
40650;BME280;26342;42.826;23.992;2023-04-06T03:45:33;94947.44;;;-0.12;100.00
40650;BME280;26342;42.826;23.992;2023-04-06T03:47:58;94946.22;;;-0.09;100.00
40650;BME280;26342;42.826;23.992;2023-04-06T03:50:26;94937.53;;;-0.16;100.00
40650;BME280;26342;42.826;23.992;2023-04-06T03:52:56;94938.97;;;-0.07;100.00
40650;BME280;26342;42.826;23.992;2023-04-06T03:55:21;94938.38;;;0.04;100.00
40650;BME280;26342;42.826;23.992;2023-04-06T03:57:48;94947.84;;;0.05;100.00
40650;BME280;26342;42.826;23.992;2023-04-06T04:00:14;94942.81;;;0.17;100.00
40650;BME280;26342;42.826;23.992;2023-04-06T04:02:40;94942.81;;;0.17;100.00
40650;BME280;26342;42.826;23.992;2023-04-06T04:05:13;94940.78;;;0.19;100.00
40650;BME280;26342;42.826;23.992;2023-04-06T04:07:39;94952.31;;;0.18;100.00
40650;BME280;26342;42.826;23.992;2023-04-06T04:10:07;94928.28;;;0.14;100.00
40650;BME280;26342;42.826;23.992;2023-04-06T04:12:32;94948.66;;;0.25;100.00
40650;BME280;26342;42.826;23.992;2023-04-06T04:15:02;94955.09;;;0.30;100.00
40650;BME280;26342;42.826;23.992;2023-04-06T04:17:29;94943.41;;;0.19;100.00
40650;BME280;26342;42.826;23.992;2023-04-06T04:19:58;94953.69;;;0.14;100.00
40650;BME280;26342;42.826;23.992;2023-04-06T04:22:25;94931.31;;;0.11;100.00
40650;BME280;26342;42.826;23.992;2023-04-06T04:24:53;94958.53;;;0.23;100.00
40650;BME280;26342;42.826;23.992;2023-04-06T04:27:27;94945.22;;;0.12;100.00
40650;BME280;26342;42.826;23.992;2023-04-06T04:29:53;94960.34;;;0.23;100.00
40650;BME280;26342;42.826;23.992;2023-04-06T04:32:18;94955.72;;;0.25;100.00
40650;BME280;26342;42.826;23.992;2023-04-06T04:34:44;94963.78;;;0.30;100.00
40650;BME280;26342;42.826;23.992;2023-04-06T04:37:16;94953.69;;;0.34;100.00
40650;BME280;26342;42.826;23.992;2023-04-06T04:39:42;94957.13;;;0.41;100.00
40650;BME280;26342;42.826;23.992;2023-04-06T04:42:08;94951.88;;;0.41;100.00
40650;BME280;26342;42.826;23.992;2023-04-06T04:44:39;94956.72;;;0.44;100.00
40650;BME280;26342;42.826;23.992;2023-04-06T04:47:06;94950.06;;;0.41;100.00
40650;BME280;26342;42.826;23.992;2023-04-06T04:49:31;94936.09;;;0.47;100.00
40650;BME280;26342;42.826;23.992;2023-04-06T04:51:57;94947.59;;;0.53;100.00
40650;BME280;26342;42.826;23.992;2023-04-06T04:54:22;94947.22;;;0.56;100.00
40650;BME280;26342;42.826;23.992;2023-04-06T04:56:48;94943.16;;;0.53;100.00
40650;BME280;26342;42.826;23.992;2023-04-06T04:59:13;94948.81;;;0.57;100.00
40650;BME280;26342;42.826;23.992;2023-04-06T05:01:39;94950.00;;;0.61;100.00
40650;BME280;26342;42.826;23.992;2023-04-06T05:04:05;94940.75;;;0.59;100.00
40650;BME280;26342;42.826;23.992;2023-04-06T05:06:30;94950.81;;;0.68;100.00
40650;BME280;26342;42.826;23.992;2023-04-06T05:08:56;94939.13;;;0.58;100.00
40650;BME280;26342;42.826;23.992;2023-04-06T05:11:22;94949.41;;;0.72;100.00
40650;BME280;26342;42.826;23.992;2023-04-06T05:13:47;94953.63;;;0.73;100.00
40650;BME280;26342;42.826;23.992;2023-04-06T05:16:13;94951.00;;;0.73;100.00
40650;BME280;26342;42.826;23.992;2023-04-06T05:18:38;94938.69;;;0.74;100.00
40650;BME280;26342;42.826;23.992;2023-04-06T05:21:04;94940.06;;;0.83;100.00
40650;BME280;26342;42.826;23.992;2023-04-06T05:23:30;94948.16;;;0.88;100.00
40650;BME280;26342;42.826;23.992;2023-04-06T05:25:55;94941.06;;;0.89;100.00
40650;BME280;26342;42.826;23.992;2023-04-06T05:28:21;94947.94;;;0.90;100.00
40650;BME280;26342;42.826;23.992;2023-04-06T05:30:48;94942.09;;;0.88;100.00
40650;BME280;26342;42.826;23.992;2023-04-06T05:33:24;94945.91;;;0.92;100.00
40650;BME280;26342;42.826;23.992;2023-04-06T05:35:50;94941.28;;;0.87;100.00
40650;BME280;26342;42.826;23.992;2023-04-06T05:38:21;94946.53;;;0.87;100.00
40650;BME280;26342;42.826;23.992;2023-04-06T05:40:47;94939.66;;;0.86;100.00
40650;BME280;26342;42.826;23.992;2023-04-06T05:43:13;94939.06;;;0.77;100.00
40650;BME280;26342;42.826;23.992;2023-04-06T05:45:38;94938.47;;;0.82;100.00
40650;BME280;26342;42.826;23.992;2023-04-06T05:48:13;94932.56;;;0.87;100.00
40650;BME280;26342;42.826;23.992;2023-04-06T05:50:39;94941.66;;;0.97;100.00
40650;BME280;26342;42.826;23.992;2023-04-06T05:53:04;94939.00;;;1.04;100.00
40650;BME280;26342;42.826;23.992;2023-04-06T05:55:30;94929.47;;;1.09;100.00
40650;BME280;26342;42.826;23.992;2023-04-06T05:57:55;94938.75;;;1.19;100.00
40650;BME280;26342;42.826;23.992;2023-04-06T06:00:21;94938.06;;;1.30;100.00
40650;BME280;26342;42.826;23.992;2023-04-06T06:02:47;94925.50;;;1.38;100.00
40650;BME280;26342;42.826;23.992;2023-04-06T06:05:13;94922.28;;;1.36;100.00
40650;BME280;26342;42.826;23.992;2023-04-06T06:07:38;94933.56;;;1.44;100.00
40650;BME280;26342;42.826;23.992;2023-04-06T06:10:04;94918.84;;;1.36;100.00
40650;BME280;26342;42.826;23.992;2023-04-06T06:12:30;94927.66;;;1.48;100.00
40650;BME280;26342;42.826;23.992;2023-04-06T06:14:55;94929.47;;;1.48;100.00
40650;BME280;26342;42.826;23.992;2023-04-06T06:17:21;94923.59;;;1.52;100.00
40650;BME280;26342;42.826;23.992;2023-04-06T06:19:47;94924.16;;;1.61;100.00
40650;BME280;26342;42.826;23.992;2023-04-06T06:22:12;94927.69;;;1.73;100.00
40650;BME280;26342;42.826;23.992;2023-04-06T06:24:38;94923.09;;;1.68;100.00
40650;BME280;26342;42.826;23.992;2023-04-06T06:27:03;94930.72;;;1.77;100.00
40650;BME280;26342;42.826;23.992;2023-04-06T06:29:29;94931.06;;;1.87;100.00
40650;BME280;26342;42.826;23.992;2023-04-06T06:31:55;94930.44;;;1.91;100.00
40650;BME280;26342;42.826;23.992;2023-04-06T06:34:20;94930.22;;;1.93;100.00
40650;BME280;26342;42.826;23.992;2023-04-06T06:36:46;94915.28;;;1.87;100.00
40650;BME280;26342;42.826;23.992;2023-04-06T06:39:11;94932.00;;;1.99;100.00
40650;BME280;26342;42.826;23.992;2023-04-06T06:41:37;94930.13;;;2.06;100.00
40650;BME280;26342;42.826;23.992;2023-04-06T06:44:02;94925.81;;;2.12;100.00
40650;BME280;26342;42.826;23.992;2023-04-06T06:46:27;94931.50;;;2.09;100.00
40650;BME280;26342;42.826;23.992;2023-04-06T06:48:54;94932.84;;;2.18;100.00
40650;BME280;26342;42.826;23.992;2023-04-06T06:51:20;94930.66;;;2.15;100.00
40650;BME280;26342;42.826;23.992;2023-04-06T06:53:45;94938.69;;;2.20;100.00
40650;BME280;26342;42.826;23.992;2023-04-06T06:56:11;94928.16;;;2.20;100.00
40650;BME280;26342;42.826;23.992;2023-04-06T06:58:37;94936.22;;;2.25;100.00
40650;BME280;26342;42.826;23.992;2023-04-06T07:01:03;94931.28;;;2.35;100.00
40650;BME280;26342;42.826;23.992;2023-04-06T07:03:30;94933.69;;;2.37;100.00
40650;BME280;26342;42.826;23.992;2023-04-06T07:05:56;94928.59;;;2.42;100.00
40650;BME280;26342;42.826;23.992;2023-04-06T07:08:23;94931.66;;;2.39;100.00
40650;BME280;26342;42.826;23.992;2023-04-06T07:10:50;94931.06;;;2.37;100.00
40650;BME280;26342;42.826;23.992;2023-04-06T07:13:17;94929.91;;;2.51;100.00
40650;BME280;26342;42.826;23.992;2023-04-06T07:15:47;94923.72;;;2.64;100.00
40650;BME280;26342;42.826;23.992;2023-04-06T07:18:13;94921.31;;;2.80;100.00
40650;BME280;26342;42.826;23.992;2023-04-06T07:20:38;94917.38;;;2.90;100.00
40650;BME280;26342;42.826;23.992;2023-04-06T07:23:05;94918.03;;;3.03;100.00
40650;BME280;26342;42.826;23.992;2023-04-06T07:25:30;94915.38;;;3.22;100.00
40650;BME280;26342;42.826;23.992;2023-04-06T07:27:56;94924.69;;;3.24;100.00
40650;BME280;26342;42.826;23.992;2023-04-06T07:30:22;94921.75;;;3.32;100.00
40650;BME280;26342;42.826;23.992;2023-04-06T07:32:48;94910.19;;;3.45;100.00
40650;BME280;26342;42.826;23.992;2023-04-06T07:35:14;94901.84;;;3.48;100.00
40650;BME280;26342;42.826;23.992;2023-04-06T07:37:39;94908.53;;;3.62;100.00
40650;BME280;26342;42.826;23.992;2023-04-06T07:40:06;94909.84;;;3.72;100.00
40650;BME280;26342;42.826;23.992;2023-04-06T07:42:31;94903.44;;;3.79;100.00
40650;BME280;26342;42.826;23.992;2023-04-06T07:44:58;94904.50;;;4.02;100.00
40650;BME280;26342;42.826;23.992;2023-04-06T07:47:23;94891.56;;;4.12;100.00
40650;BME280;26342;42.826;23.992;2023-04-06T07:49:49;94895.94;;;4.30;100.00
40650;BME280;26342;42.826;23.992;2023-04-06T07:52:15;94899.59;;;4.40;100.00
40650;BME280;26342;42.826;23.992;2023-04-06T07:54:41;94889.63;;;4.54;100.00
40650;BME280;26342;42.826;23.992;2023-04-06T07:57:07;94897.78;;;4.76;100.00
40650;BME280;26342;42.826;23.992;2023-04-06T07:59:32;94898.78;;;4.98;100.00
40650;BME280;26342;42.826;23.992;2023-04-06T08:01:58;94895.28;;;5.10;100.00
40650;BME280;26342;42.826;23.992;2023-04-06T08:04:23;94889.25;;;5.26;100.00
40650;BME280;26342;42.826;23.992;2023-04-06T08:06:49;94889.56;;;5.41;100.00
40650;BME280;26342;42.826;23.992;2023-04-06T08:09:14;94885.34;;;5.57;100.00
40650;BME280;26342;42.826;23.992;2023-04-06T08:11:40;94883.22;;;5.71;100.00
40650;BME280;26342;42.826;23.992;2023-04-06T08:14:05;94887.38;;;5.95;100.00
40650;BME280;26342;42.826;23.992;2023-04-06T08:16:31;94888.88;;;6.08;100.00
40650;BME280;26342;42.826;23.992;2023-04-06T08:18:56;94881.44;;;6.05;100.00
40650;BME280;26342;42.826;23.992;2023-04-06T08:21:22;94878.78;;;6.05;100.00
40650;BME280;26342;42.826;23.992;2023-04-06T08:23:47;94874.69;;;6.14;100.00
40650;BME280;26342;42.826;23.992;2023-04-06T08:26:13;94868.19;;;6.38;100.00
40650;BME280;26342;42.826;23.992;2023-04-06T08:28:38;94877.72;;;6.56;100.00
40650;BME280;26342;42.826;23.992;2023-04-06T08:31:05;94878.50;;;6.74;100.00
40650;BME280;26342;42.826;23.992;2023-04-06T08:33:30;94883.50;;;6.92;100.00
40650;BME280;26342;42.826;23.992;2023-04-06T08:35:56;94880.81;;;7.09;100.00
40650;BME280;26342;42.826;23.992;2023-04-06T08:38:22;94872.72;;;7.20;97.28
40650;BME280;26342;42.826;23.992;2023-04-06T08:40:47;94873.56;;;7.26;100.00
40650;BME280;26342;42.826;23.992;2023-04-06T08:43:17;94871.34;;;7.18;95.11
40650;BME280;26342;42.826;23.992;2023-04-06T08:45:44;94875.44;;;7.25;97.29
40650;BME280;26342;42.826;23.992;2023-04-06T08:48:11;94875.75;;;7.29;90.76
40650;BME280;26342;42.826;23.992;2023-04-06T08:50:38;94856.13;;;7.30;100.00
40650;BME280;26342;42.826;23.992;2023-04-06T08:53:05;94873.56;;;7.48;99.12
40650;BME280;26342;42.826;23.992;2023-04-06T08:55:32;94869.91;;;7.81;94.86
40650;BME280;26342;42.826;23.992;2023-04-06T08:57:58;94869.38;;;8.06;89.64
40650;BME280;26342;42.826;23.992;2023-04-06T09:00:25;94873.56;;;8.02;93.74
40650;BME280;26342;42.826;23.992;2023-04-06T09:02:53;94861.47;;;7.84;86.78
40650;BME280;26342;42.826;23.992;2023-04-06T09:05:20;94861.59;;;7.72;85.46
40650;BME280;26342;42.826;23.992;2023-04-06T09:07:46;94856.34;;;7.50;85.94
40650;BME280;26342;42.826;23.992;2023-04-06T09:10:12;94865.31;;;7.71;89.19
40650;BME280;26342;42.826;23.992;2023-04-06T09:12:38;94839.97;;;7.59;84.56
40650;BME280;26342;42.826;23.992;2023-04-06T09:15:03;94871.69;;;7.70;91.12
40650;BME280;26342;42.826;23.992;2023-04-06T09:17:31;94862.97;;;7.75;92.11
40650;BME280;26342;42.826;23.992;2023-04-06T09:20:00;94840.94;;;7.79;91.58
40650;BME280;26342;42.826;23.992;2023-04-06T09:22:34;94859.94;;;7.93;87.23
40650;BME280;26342;42.826;23.992;2023-04-06T09:25:00;94862.00;;;7.86;86.08
40650;BME280;26342;42.826;23.992;2023-04-06T09:27:36;94856.47;;;7.66;82.91
40650;BME280;26342;42.826;23.992;2023-04-06T09:30:04;94856.25;;;7.67;82.21
40650;BME280;26342;42.826;23.992;2023-04-06T09:32:30;94853.47;;;7.57;86.07
40650;BME280;26342;42.826;23.992;2023-04-06T09:35:06;94853.81;;;7.66;82.97
40650;BME280;26342;42.826;23.992;2023-04-06T09:37:32;94851.50;;;7.69;82.04
40650;BME280;26342;42.826;23.992;2023-04-06T09:40:04;94845.56;;;7.62;83.74
40650;BME280;26342;42.826;23.992;2023-04-06T09:42:31;94837.25;;;7.53;84.89
40650;BME280;26342;42.826;23.992;2023-04-06T09:44:56;94848.25;;;7.40;85.56
40650;BME280;26342;42.826;23.992;2023-04-06T09:47:22;94857.28;;;7.39;90.48
40650;BME280;26342;42.826;23.992;2023-04-06T09:49:56;94853.28;;;7.37;88.88
40650;BME280;26342;42.826;23.992;2023-04-06T09:52:26;94832.63;;;7.17;89.02
40650;BME280;26342;42.826;23.992;2023-04-06T09:54:52;94855.56;;;7.28;83.14
40650;BME280;26342;42.826;23.992;2023-04-06T09:57:25;94854.53;;;7.29;87.88
40650;BME280;26342;42.826;23.992;2023-04-06T10:00:05;94858.22;;;7.28;85.87
40650;BME280;26342;42.826;23.992;2023-04-06T10:05:42;94847.28;;;7.46;86.55
40650;BME280;26342;42.826;23.992;2023-04-06T10:08:10;94844.22;;;7.60;91.94
40650;BME280;26342;42.826;23.992;2023-04-06T10:10:36;94840.13;;;8.06;94.69
40650;BME280;26342;42.826;23.992;2023-04-06T10:13:02;94839.34;;;8.10;85.33
40650;BME280;26342;42.826;23.992;2023-04-06T10:15:29;94838.47;;;8.00;76.79
40650;BME280;26342;42.826;23.992;2023-04-06T10:17:57;94829.91;;;7.93;77.04
40650;BME280;26342;42.826;23.992;2023-04-06T10:23:24;94826.59;;;8.07;82.54
40650;BME280;26342;42.826;23.992;2023-04-06T10:25:56;94830.63;;;8.15;82.84
40650;BME280;26342;42.826;23.992;2023-04-06T10:28:23;94836.09;;;7.98;78.88
40650;BME280;26342;42.826;23.992;2023-04-06T10:30:48;94839.22;;;7.90;83.60
40650;BME280;26342;42.826;23.992;2023-04-06T10:33:17;94832.03;;;7.91;82.38
40650;BME280;26342;42.826;23.992;2023-04-06T10:35:43;94834.09;;;7.83;81.22
40650;BME280;26342;42.826;23.992;2023-04-06T10:38:09;94827.84;;;7.68;81.80
40650;BME280;26342;42.826;23.992;2023-04-06T10:40:37;94839.53;;;7.67;84.33
40650;BME280;26342;42.826;23.992;2023-04-06T10:43:17;94833.91;;;7.63;87.86
40650;BME280;26342;42.826;23.992;2023-04-06T10:45:44;94837.91;;;7.66;83.74
40650;BME280;26342;42.826;23.992;2023-04-06T10:48:16;94828.53;;;7.58;84.24
40650;BME280;26342;42.826;23.992;2023-04-06T10:50:47;94828.31;;;7.65;82.09
40650;BME280;26342;42.826;23.992;2023-04-06T10:55:54;94822.47;;;7.63;86.02
40650;BME280;26342;42.826;23.992;2023-04-06T10:58:20;94831.19;;;7.31;83.22
40650;BME280;26342;42.826;23.992;2023-04-06T11:00:49;94829.03;;;7.28;84.59
40650;BME280;26342;42.826;23.992;2023-04-06T11:03:15;94824.22;;;7.25;85.67
40650;BME280;26342;42.826;23.992;2023-04-06T11:05:45;94829.25;;;7.26;83.99
40650;BME280;26342;42.826;23.992;2023-04-06T11:08:24;94830.19;;;7.37;85.88
40650;BME280;26342;42.826;23.992;2023-04-06T11:10:50;94823.41;;;7.24;85.47
40650;BME280;26342;42.826;23.992;2023-04-06T11:13:16;94823.13;;;7.21;85.36
40650;BME280;26342;42.826;23.992;2023-04-06T11:15:41;94826.59;;;7.26;85.93
40650;BME280;26342;42.826;23.992;2023-04-06T11:18:07;94824.41;;;7.18;88.59
40650;BME280;26342;42.826;23.992;2023-04-06T11:20:32;94826.75;;;7.15;87.60
40650;BME280;26342;42.826;23.992;2023-04-06T11:22:58;94823.94;;;6.99;86.43
40650;BME280;26342;42.826;23.992;2023-04-06T11:25:25;94835.41;;;6.83;87.01
40650;BME280;26342;42.826;23.992;2023-04-06T11:27:55;94834.69;;;6.88;87.37
40650;BME280;26342;42.826;23.992;2023-04-06T11:30:20;94830.28;;;6.77;89.02
40650;BME280;26342;42.826;23.992;2023-04-06T11:32:46;94820.34;;;6.89;87.79
40650;BME280;26342;42.826;23.992;2023-04-06T11:35:19;94821.19;;;6.94;87.88
40650;BME280;26342;42.826;23.992;2023-04-06T11:37:45;94818.81;;;6.93;87.62
40650;BME280;26342;42.826;23.992;2023-04-06T11:40:11;94822.31;;;6.98;87.87
40650;BME280;26342;42.826;23.992;2023-04-06T11:42:36;94818.31;;;6.96;88.01
40650;BME280;26342;42.826;23.992;2023-04-06T11:45:02;94813.38;;;7.05;87.47
40650;BME280;26342;42.826;23.992;2023-04-06T11:47:35;94820.22;;;7.00;85.98
40650;BME280;26342;42.826;23.992;2023-04-06T11:50:08;94806.91;;;6.95;85.06
40650;BME280;26342;42.826;23.992;2023-04-06T11:52:34;94813.81;;;6.96;86.73
40650;BME280;26342;42.826;23.992;2023-04-06T11:55:13;94807.31;;;7.09;82.23
40650;BME280;26342;42.826;23.992;2023-04-06T11:57:40;94808.63;;;7.34;85.68
40650;BME280;26342;42.826;23.992;2023-04-06T12:00:07;94815.31;;;7.36;80.87
40650;BME280;26342;42.826;23.992;2023-04-06T12:02:33;94806.66;;;7.46;83.22
40650;BME280;26342;42.826;23.992;2023-04-06T12:04:58;94805.59;;;7.47;78.83
40650;BME280;26342;42.826;23.992;2023-04-06T12:07:24;94807.75;;;7.50;80.14
40650;BME280;26342;42.826;23.992;2023-04-06T12:09:49;94806.84;;;7.66;79.20
40650;BME280;26342;42.826;23.992;2023-04-06T12:12:15;94806.25;;;7.59;80.73
40650;BME280;26342;42.826;23.992;2023-04-06T12:14:41;94811.97;;;7.46;77.08
40650;BME280;26342;42.826;23.992;2023-04-06T12:17:06;94795.66;;;7.10;76.94
40650;BME280;26342;42.826;23.992;2023-04-06T12:19:32;94816.44;;;7.18;82.81
40650;BME280;26342;42.826;23.992;2023-04-06T12:21:57;94809.69;;;7.33;79.08
40650;BME280;26342;42.826;23.992;2023-04-06T12:24:23;94811.50;;;7.27;80.10
40650;BME280;26342;42.826;23.992;2023-04-06T12:26:49;94815.69;;;7.23;81.04
40650;BME280;26342;42.826;23.992;2023-04-06T12:29:15;94823.97;;;7.26;80.20
40650;BME280;26342;42.826;23.992;2023-04-06T12:31:42;94809.88;;;7.26;82.34
40650;BME280;26342;42.826;23.992;2023-04-06T12:34:09;94819.16;;;7.23;79.36
40650;BME280;26342;42.826;23.992;2023-04-06T12:36:36;94809.66;;;7.27;78.07
40650;BME280;26342;42.826;23.992;2023-04-06T12:39:02;94800.75;;;7.39;78.05
40650;BME280;26342;42.826;23.992;2023-04-06T12:41:28;94804.53;;;7.48;78.67
40650;BME280;26342;42.826;23.992;2023-04-06T12:43:54;94801.94;;;7.53;79.68
40650;BME280;26342;42.826;23.992;2023-04-06T12:46:19;94795.03;;;7.52;77.23
40650;BME280;26342;42.826;23.992;2023-04-06T12:48:45;94806.91;;;7.44;78.08
40650;BME280;26342;42.826;23.992;2023-04-06T12:51:11;94802.69;;;7.48;78.25
40650;BME280;26342;42.826;23.992;2023-04-06T12:53:37;94803.28;;;7.55;76.08
40650;BME280;26342;42.826;23.992;2023-04-06T12:58:36;94793.47;;;7.56;76.30
40650;BME280;26342;42.826;23.992;2023-04-06T13:01:06;94797.53;;;7.64;73.09
40650;BME280;26342;42.826;23.992;2023-04-06T13:03:31;94778.34;;;7.56;76.30
40650;BME280;26342;42.826;23.992;2023-04-06T13:05:59;94792.84;;;7.76;78.88
40650;BME280;26342;42.826;23.992;2023-04-06T13:08:25;94786.69;;;7.70;74.60
40650;BME280;26342;42.826;23.992;2023-04-06T13:10:51;94788.75;;;7.63;79.07
40650;BME280;26342;42.826;23.992;2023-04-06T13:13:24;94783.44;;;7.63;77.46
40650;BME280;26342;42.826;23.992;2023-04-06T13:15:50;94789.28;;;7.60;77.30